createdAt,value
2018-12-07T00:00:01.829Z,1009.96
2018-12-07T00:01:01.799Z,1009.94
2018-12-07T00:02:01.768Z,1009.87
2018-12-07T00:03:01.738Z,1009.89
2018-12-07T00:04:01.708Z,1009.87
2018-12-07T00:05:01.680Z,1009.82
2018-12-07T00:06:01.646Z,1009.82
2018-12-07T00:07:01.618Z,1009.76
2018-12-07T00:08:01.589Z,1009.81
2018-12-07T00:09:01.560Z,1009.82
2018-12-07T00:10:01.529Z,1009.83
2018-12-07T00:11:01.499Z,1009.75
2018-12-07T00:12:01.468Z,1009.85
2018-12-07T00:13:01.439Z,1009.84
2018-12-07T00:14:01.408Z,1009.82
2018-12-07T00:15:01.378Z,1009.77
2018-12-07T00:16:01.347Z,1009.75
2018-12-07T00:17:01.318Z,1009.75
2018-12-07T00:18:01.288Z,1009.67
2018-12-07T00:19:01.257Z,1009.67
2018-12-07T00:20:01.228Z,1009.66
2018-12-07T00:21:01.197Z,1009.62
2018-12-07T00:22:01.167Z,1009.58
2018-12-07T00:23:01.137Z,1009.59
2018-12-07T00:24:01.107Z,1009.49
2018-12-07T00:25:01.079Z,1009.55
2018-12-07T00:26:01.046Z,1009.54
2018-12-07T00:27:01.019Z,1009.53
2018-12-07T00:28:00.987Z,1009.49
2018-12-07T00:29:00.956Z,1009.50
2018-12-07T00:30:00.927Z,1009.42
2018-12-07T00:31:00.897Z,1009.43
2018-12-07T00:32:00.867Z,1009.41
2018-12-07T00:33:00.838Z,1009.36
2018-12-07T00:34:00.807Z,1009.34
2018-12-07T00:35:00.777Z,1009.35
2018-12-07T00:36:00.746Z,1009.26
2018-12-07T00:37:00.719Z,1009.30
2018-12-07T00:38:00.686Z,1009.30
2018-12-07T00:39:00.658Z,1009.21
2018-12-07T00:40:00.628Z,1009.18
2018-12-07T00:41:00.599Z,1009.21
2018-12-07T00:42:00.567Z,1009.11
2018-12-07T00:43:00.536Z,1009.09
2018-12-07T00:44:00.506Z,1009.14
2018-12-07T00:45:00.479Z,1009.09
2018-12-07T00:46:00.446Z,1009.14
2018-12-07T00:47:00.417Z,1009.10
2018-12-07T00:48:00.392Z,1009.13
2018-12-07T00:49:00.356Z,1009.13
2018-12-07T00:50:00.325Z,1009.15
2018-12-07T00:51:00.296Z,1009.12
2018-12-07T00:52:00.267Z,1009.18
2018-12-07T00:53:00.237Z,1009.18
2018-12-07T00:54:00.205Z,1009.22
2018-12-07T00:55:00.176Z,1009.24
2018-12-07T00:56:00.146Z,1009.21
2018-12-07T00:57:00.119Z,1009.22
2018-12-07T00:58:00.087Z,1009.27
2018-12-07T00:59:00.056Z,1009.25
2018-12-07T01:00:00.029Z,1009.27
2018-12-07T01:00:59.998Z,1009.22
2018-12-07T01:01:59.967Z,1009.23
2018-12-07T01:02:59.937Z,1009.24
2018-12-07T01:03:59.906Z,1009.26
2018-12-07T01:04:59.877Z,1009.25
2018-12-07T01:05:59.847Z,1009.20
2018-12-07T01:06:59.818Z,1009.16
2018-12-07T01:07:59.789Z,1009.16
2018-12-07T01:08:59.757Z,1009.11
2018-12-07T01:09:59.729Z,1009.07
2018-12-07T01:10:59.699Z,1009.11
2018-12-07T01:11:59.669Z,1009.13
2018-12-07T01:12:59.640Z,1009.11
2018-12-07T01:13:59.610Z,1009.10
2018-12-07T01:14:59.578Z,1009.06
2018-12-07T01:15:59.549Z,1009.04
2018-12-07T01:16:59.518Z,1009.09
2018-12-07T01:17:59.488Z,1009.14
2018-12-07T01:18:59.459Z,1009.06
2018-12-07T01:19:59.430Z,1009.03
2018-12-07T01:20:59.400Z,1009.08
2018-12-07T01:21:59.369Z,1009.04
2018-12-07T01:22:59.339Z,1008.99
2018-12-07T01:23:59.311Z,1009.05
2018-12-07T01:24:59.283Z,1009.02
2018-12-07T01:25:59.251Z,1009.03
2018-12-07T01:26:59.221Z,1009.04
2018-12-07T01:27:59.191Z,1009.02
2018-12-07T01:28:59.161Z,1009.03
2018-12-07T01:29:59.131Z,1008.98
2018-12-07T01:30:59.101Z,1008.97
2018-12-07T01:31:59.071Z,1008.96
2018-12-07T01:32:59.045Z,1008.98
2018-12-07T01:33:59.011Z,1008.94
2018-12-07T01:34:58.981Z,1008.95
2018-12-07T01:35:58.953Z,1008.91
2018-12-07T01:36:58.922Z,1008.89
2018-12-07T01:37:58.893Z,1008.87
2018-12-07T01:38:58.863Z,1008.86
2018-12-07T01:39:58.836Z,1008.84
2018-12-07T01:41:00.030Z,1008.87
2018-12-07T01:41:58.772Z,1008.85
2018-12-07T01:42:58.743Z,1008.86
2018-12-07T01:43:58.713Z,1008.83
2018-12-07T01:44:58.683Z,1008.80
2018-12-07T01:45:58.654Z,1008.75
2018-12-07T01:46:58.625Z,1008.82
2018-12-07T01:47:58.594Z,1008.81
2018-12-07T01:48:58.565Z,1008.77
2018-12-07T01:49:58.534Z,1008.77
2018-12-07T01:50:58.505Z,1008.80
2018-12-07T01:51:58.476Z,1008.77
2018-12-07T01:52:58.446Z,1008.77
2018-12-07T01:53:58.416Z,1008.69
2018-12-07T01:54:58.389Z,1008.80
2018-12-07T01:55:58.357Z,1008.70
2018-12-07T01:56:58.326Z,1008.70
2018-12-07T01:57:58.297Z,1008.67
2018-12-07T01:58:58.266Z,1008.67
2018-12-07T01:59:58.237Z,1008.64
2018-12-07T02:00:58.208Z,1008.61
2018-12-07T02:01:58.179Z,1008.60
2018-12-07T02:02:58.149Z,1008.60
2018-12-07T02:03:58.122Z,1008.60
2018-12-07T02:04:58.092Z,1008.60
2018-12-07T02:05:58.058Z,1008.56
2018-12-07T02:06:58.029Z,1008.58
2018-12-07T02:07:57.999Z,1008.60
2018-12-07T02:08:57.969Z,1008.57
2018-12-07T02:09:57.939Z,1008.56
2018-12-07T02:10:57.909Z,1008.61
2018-12-07T02:11:57.880Z,1008.58
2018-12-07T02:12:57.852Z,1008.54
2018-12-07T02:13:57.822Z,1008.58
2018-12-07T02:14:57.791Z,1008.55
2018-12-07T02:15:57.763Z,1008.53
2018-12-07T02:16:57.736Z,1008.47
2018-12-07T02:17:57.703Z,1008.54
2018-12-07T02:18:57.678Z,1008.54
2018-12-07T02:19:57.644Z,1008.49
2018-12-07T02:20:57.615Z,1008.49
2018-12-07T02:21:57.584Z,1008.46
2018-12-07T02:22:57.555Z,1008.45
2018-12-07T02:23:57.524Z,1008.45
2018-12-07T02:24:57.496Z,1008.45
2018-12-07T02:25:57.465Z,1008.43
2018-12-07T02:26:57.436Z,1008.42
2018-12-07T02:27:57.407Z,1008.40
2018-12-07T02:28:57.376Z,1008.40
2018-12-07T02:29:57.350Z,1008.38
2018-12-07T02:30:57.320Z,1008.42
2018-12-07T02:31:57.288Z,1008.43
2018-12-07T02:32:57.259Z,1008.39
2018-12-07T02:33:57.229Z,1008.43
2018-12-07T02:34:57.200Z,1008.39
2018-12-07T02:35:57.171Z,1008.41
2018-12-07T02:36:57.140Z,1008.41
2018-12-07T02:37:57.118Z,1008.35
2018-12-07T02:38:57.080Z,1008.34
2018-12-07T02:39:57.051Z,1008.32
2018-12-07T02:40:57.023Z,1008.33
2018-12-07T02:41:56.993Z,1008.31
2018-12-07T02:42:56.964Z,1008.30
2018-12-07T02:43:56.932Z,1008.31
2018-12-07T02:44:56.908Z,1008.33
2018-12-07T02:45:56.873Z,1008.28
2018-12-07T02:46:56.844Z,1008.31
2018-12-07T02:47:56.815Z,1008.29
2018-12-07T02:48:56.787Z,1008.34
2018-12-07T02:49:56.755Z,1008.27
2018-12-07T02:50:56.727Z,1008.24
2018-12-07T02:51:56.698Z,1008.21
2018-12-07T02:52:56.667Z,1008.25
2018-12-07T02:53:56.635Z,1008.21
2018-12-07T02:54:56.611Z,1008.21
2018-12-07T02:55:56.580Z,1008.22
2018-12-07T02:56:56.551Z,1008.15
2018-12-07T02:57:56.520Z,1008.13
2018-12-07T02:58:56.491Z,1008.12
2018-12-07T02:59:56.461Z,1008.15
2018-12-07T03:00:56.431Z,1008.10
2018-12-07T03:01:56.403Z,1008.06
2018-12-07T03:02:56.373Z,1008.03
2018-12-07T03:03:56.343Z,1008.05
2018-12-07T03:04:56.313Z,1008.04
2018-12-07T03:05:56.284Z,1008.06
2018-12-07T03:06:56.253Z,1008.07
2018-12-07T03:07:56.225Z,1008.02
2018-12-07T03:08:56.194Z,1008.06
2018-12-07T03:09:56.166Z,1007.99
2018-12-07T03:10:56.138Z,1008.02
2018-12-07T03:11:56.108Z,1008.00
2018-12-07T03:12:56.083Z,1008.01
2018-12-07T03:13:56.047Z,1008.00
2018-12-07T03:14:56.018Z,1008.06
2018-12-07T03:15:55.990Z,1007.99
2018-12-07T03:16:55.960Z,1008.02
2018-12-07T03:17:55.932Z,1008.05
2018-12-07T03:18:55.901Z,1008.04
2018-12-07T03:19:55.871Z,1008.02
2018-12-07T03:20:55.842Z,1008.06
2018-12-07T03:21:55.813Z,1008.05
2018-12-07T03:22:55.783Z,1008.08
2018-12-07T03:23:55.753Z,1008.07
2018-12-07T03:24:55.733Z,1008.03
2018-12-07T03:25:55.698Z,1008.01
2018-12-07T03:26:55.667Z,1008.01
2018-12-07T03:27:55.637Z,1007.98
2018-12-07T03:28:55.608Z,1007.99
2018-12-07T03:29:55.579Z,1007.95
2018-12-07T03:30:55.559Z,1007.93
2018-12-07T03:31:55.530Z,1007.96
2018-12-07T03:32:55.522Z,1007.96
2018-12-07T03:33:55.460Z,1007.98
2018-12-07T03:34:55.432Z,1007.96
2018-12-07T03:35:55.402Z,1007.96
2018-12-07T03:36:55.373Z,1007.92
2018-12-07T03:37:55.347Z,1007.94
2018-12-07T03:38:55.314Z,1007.96
2018-12-07T03:39:55.284Z,1007.90
2018-12-07T03:40:55.255Z,1007.88
2018-12-07T03:41:55.225Z,1007.90
2018-12-07T03:42:55.197Z,1007.91
2018-12-07T03:43:55.167Z,1007.90
2018-12-07T03:44:55.138Z,1007.85
2018-12-07T03:45:55.107Z,1007.88
2018-12-07T03:46:55.079Z,1007.88
2018-12-07T03:47:55.050Z,1007.88
2018-12-07T03:48:55.021Z,1007.85
2018-12-07T03:49:54.990Z,1007.86
2018-12-07T03:50:54.960Z,1007.88
2018-12-07T03:51:54.934Z,1007.90
2018-12-07T03:52:54.904Z,1007.96
2018-12-07T03:53:54.877Z,1007.91
2018-12-07T03:54:54.849Z,1007.90
2018-12-07T03:55:54.815Z,1007.95
2018-12-07T03:56:54.788Z,1007.85
2018-12-07T03:57:54.756Z,1007.88
2018-12-07T03:58:54.725Z,1007.87
2018-12-07T03:59:54.701Z,1007.85
2018-12-07T04:00:54.672Z,1007.91
2018-12-07T04:01:54.639Z,1007.84
2018-12-07T04:02:54.609Z,1007.85
2018-12-07T04:03:54.580Z,1007.87
2018-12-07T04:04:54.551Z,1007.84
2018-12-07T04:05:54.523Z,1007.83
2018-12-07T04:06:54.492Z,1007.85
2018-12-07T04:07:54.463Z,1007.80
2018-12-07T04:08:54.444Z,1007.78
2018-12-07T04:09:54.403Z,1007.71
2018-12-07T04:10:54.375Z,1007.76
2018-12-07T04:11:54.345Z,1007.69
2018-12-07T04:12:54.316Z,1007.68
2018-12-07T04:13:54.286Z,1007.70
2018-12-07T04:14:54.257Z,1007.68
2018-12-07T04:15:54.227Z,1007.67
2018-12-07T04:16:54.201Z,1007.69
2018-12-07T04:17:54.168Z,1007.69
2018-12-07T04:18:54.143Z,1007.67
2018-12-07T04:19:54.112Z,1007.70
2018-12-07T04:20:54.079Z,1007.70
2018-12-07T04:21:54.053Z,1007.72
2018-12-07T04:22:54.023Z,1007.65
2018-12-07T04:23:53.993Z,1007.64
2018-12-07T04:24:53.966Z,1007.65
2018-12-07T04:25:53.939Z,1007.63
2018-12-07T04:26:53.905Z,1007.63
2018-12-07T04:27:53.877Z,1007.56
2018-12-07T04:28:53.885Z,1007.57
2018-12-07T04:29:53.816Z,1007.54
2018-12-07T04:30:53.794Z,1007.53
2018-12-07T04:31:53.773Z,1007.54
2018-12-07T04:32:53.745Z,1007.56
2018-12-07T04:33:53.700Z,1007.53
2018-12-07T04:34:53.678Z,1007.57
2018-12-07T04:35:53.647Z,1007.58
2018-12-07T04:36:53.613Z,1007.60
2018-12-07T04:37:53.584Z,1007.55
2018-12-07T04:38:53.552Z,1007.60
2018-12-07T04:39:53.524Z,1007.53
2018-12-07T04:40:53.494Z,1007.59
2018-12-07T04:41:53.465Z,1007.53
2018-12-07T04:42:53.437Z,1007.55
2018-12-07T04:43:53.408Z,1007.55
2018-12-07T04:44:53.378Z,1007.52
2018-12-07T04:45:53.349Z,1007.55
2018-12-07T04:46:53.320Z,1007.46
2018-12-07T04:47:53.288Z,1007.53
2018-12-07T04:48:53.260Z,1007.49
2018-12-07T04:49:53.230Z,1007.56
2018-12-07T04:50:53.208Z,1007.53
2018-12-07T04:51:53.171Z,1007.55
2018-12-07T04:52:53.148Z,1007.60
2018-12-07T04:53:53.114Z,1007.58
2018-12-07T04:54:53.084Z,1007.55
2018-12-07T04:55:53.053Z,1007.53
2018-12-07T04:56:53.025Z,1007.52
2018-12-07T04:57:52.999Z,1007.51
2018-12-07T04:58:52.987Z,1007.50
2018-12-07T04:59:52.938Z,1007.49
2018-12-07T05:00:52.908Z,1007.49
2018-12-07T05:01:52.879Z,1007.51
2018-12-07T05:02:52.848Z,1007.46
2018-12-07T05:03:52.820Z,1007.47
2018-12-07T05:04:52.789Z,1007.45
2018-12-07T05:05:52.762Z,1007.44
2018-12-07T05:06:52.732Z,1007.43
2018-12-07T05:07:52.709Z,1007.46
2018-12-07T05:08:52.678Z,1007.43
2018-12-07T05:09:52.646Z,1007.42
2018-12-07T05:10:52.614Z,1007.41
2018-12-07T05:11:52.587Z,1007.40
2018-12-07T05:12:52.561Z,1007.43
2018-12-07T05:13:52.527Z,1007.41
2018-12-07T05:14:52.497Z,1007.40
2018-12-07T05:15:52.472Z,1007.41
2018-12-07T05:16:52.440Z,1007.41
2018-12-07T05:17:52.409Z,1007.41
2018-12-07T05:18:52.384Z,1007.39
2018-12-07T05:19:52.351Z,1007.42
2018-12-07T05:20:52.323Z,1007.40
2018-12-07T05:21:52.293Z,1007.39
2018-12-07T05:22:52.262Z,1007.38
2018-12-07T05:23:52.235Z,1007.33
2018-12-07T05:24:52.212Z,1007.36
2018-12-07T05:25:52.177Z,1007.32
2018-12-07T05:26:52.145Z,1007.32
2018-12-07T05:27:52.117Z,1007.33
2018-12-07T05:28:52.088Z,1007.25
2018-12-07T05:29:52.190Z,1007.22
2018-12-07T05:30:52.030Z,1007.25
2018-12-07T05:31:52.001Z,1007.25
2018-12-07T05:32:51.972Z,1007.22
2018-12-07T05:33:51.941Z,1007.21
2018-12-07T05:34:52.006Z,1007.28
2018-12-07T05:35:51.883Z,1007.25
2018-12-07T05:36:51.854Z,1007.27
2018-12-07T05:37:51.825Z,1007.29
2018-12-07T05:38:51.796Z,1007.27
2018-12-07T05:39:51.767Z,1007.26
2018-12-07T05:40:51.737Z,1007.26
2018-12-07T05:41:51.706Z,1007.28
2018-12-07T05:42:51.677Z,1007.27
2018-12-07T05:43:51.648Z,1007.25
2018-12-07T05:44:51.621Z,1007.26
2018-12-07T05:45:51.591Z,1007.16
2018-12-07T05:46:51.562Z,1007.20
2018-12-07T05:47:51.532Z,1007.20
2018-12-07T05:48:51.504Z,1007.19
2018-12-07T05:49:51.474Z,1007.18
2018-12-07T05:50:51.443Z,1007.24
2018-12-07T05:51:51.414Z,1007.20
2018-12-07T05:52:51.385Z,1007.19
2018-12-07T05:53:51.356Z,1007.17
2018-12-07T05:54:51.325Z,1007.15
2018-12-07T05:55:51.297Z,1007.13
2018-12-07T05:56:51.268Z,1007.12
2018-12-07T05:57:51.238Z,1007.10
2018-12-07T05:58:51.209Z,1007.13
2018-12-07T05:59:51.181Z,1007.12
2018-12-07T06:00:51.151Z,1007.03
2018-12-07T06:01:51.120Z,1007.14
2018-12-07T06:02:51.092Z,1007.12
2018-12-07T06:03:51.062Z,1007.11
2018-12-07T06:04:51.033Z,1007.05
2018-12-07T06:05:51.006Z,1007.10
2018-12-07T06:06:50.973Z,1007.10
2018-12-07T06:07:50.946Z,1007.00
2018-12-07T06:08:50.918Z,1007.01
2018-12-07T06:09:50.893Z,1007.02
2018-12-07T06:10:50.861Z,1006.98
2018-12-07T06:11:50.829Z,1007.00
2018-12-07T06:12:50.801Z,1007.02
2018-12-07T06:13:50.771Z,1007.03
2018-12-07T06:14:50.740Z,1007.06
2018-12-07T06:15:50.711Z,1007.06
2018-12-07T06:16:50.715Z,1007.05
2018-12-07T06:17:50.654Z,1007.09
2018-12-07T06:18:50.624Z,1007.06
2018-12-07T06:19:50.595Z,1007.06
2018-12-07T06:20:50.565Z,1007.07
2018-12-07T06:21:50.536Z,1007.11
2018-12-07T06:22:50.505Z,1007.09
2018-12-07T06:23:50.478Z,1007.06
2018-12-07T06:24:50.447Z,1007.04
2018-12-07T06:25:50.417Z,1007.09
2018-12-07T06:26:50.388Z,1007.01
2018-12-07T06:27:50.360Z,1007.05
2018-12-07T06:28:50.331Z,1006.99
2018-12-07T06:29:50.300Z,1007.04
2018-12-07T06:30:50.271Z,1007.05
2018-12-07T06:31:50.243Z,1007.02
2018-12-07T06:32:50.217Z,1007.09
2018-12-07T06:33:50.183Z,1007.03
2018-12-07T06:34:50.158Z,1007.03
2018-12-07T06:35:50.125Z,1007.02
2018-12-07T06:36:50.096Z,1006.99
2018-12-07T06:37:50.068Z,1006.99
2018-12-07T06:38:50.036Z,1006.98
2018-12-07T06:39:50.010Z,1006.98
2018-12-07T06:40:49.978Z,1006.91
2018-12-07T06:41:49.948Z,1006.88
2018-12-07T06:42:49.920Z,1006.87
2018-12-07T06:43:49.890Z,1006.85
2018-12-07T06:44:49.860Z,1006.83
2018-12-07T06:45:49.832Z,1006.81
2018-12-07T06:46:49.802Z,1006.83
2018-12-07T06:47:49.773Z,1006.78
2018-12-07T06:48:49.745Z,1006.83
2018-12-07T06:49:49.715Z,1006.79
2018-12-07T06:50:49.685Z,1006.82
2018-12-07T06:51:49.656Z,1006.76
2018-12-07T06:52:49.629Z,1006.81
2018-12-07T06:53:49.597Z,1006.80
2018-12-07T06:54:49.568Z,1006.72
2018-12-07T06:55:49.539Z,1006.72
2018-12-07T06:56:49.511Z,1006.70
2018-12-07T06:57:49.479Z,1006.72
2018-12-07T06:58:49.455Z,1006.71
2018-12-07T06:59:49.422Z,1006.68
2018-12-07T07:00:49.392Z,1006.70
2018-12-07T07:01:49.363Z,1006.72
2018-12-07T07:02:49.333Z,1006.67
2018-12-07T07:03:49.305Z,1006.68
2018-12-07T07:04:49.276Z,1006.67
2018-12-07T07:05:49.245Z,1006.68
2018-12-07T07:06:49.219Z,1006.68
2018-12-07T07:07:49.188Z,1006.65
2018-12-07T07:08:49.158Z,1006.66
2018-12-07T07:09:49.129Z,1006.66
2018-12-07T07:10:49.099Z,1006.62
2018-12-07T07:11:49.072Z,1006.60
2018-12-07T07:12:49.042Z,1006.54
2018-12-07T07:13:49.010Z,1006.58
2018-12-07T07:14:48.983Z,1006.56
2018-12-07T07:15:48.953Z,1006.55
2018-12-07T07:16:48.924Z,1006.56
2018-12-07T07:17:48.895Z,1006.57
2018-12-07T07:18:48.866Z,1006.53
2018-12-07T07:19:48.837Z,1006.57
2018-12-07T07:20:48.816Z,1006.52
2018-12-07T07:21:48.777Z,1006.54
2018-12-07T07:22:48.747Z,1006.53
2018-12-07T07:23:48.725Z,1006.54
2018-12-07T07:24:48.690Z,1006.52
2018-12-07T07:25:48.660Z,1006.53
2018-12-07T07:26:48.631Z,1006.55
2018-12-07T07:27:48.602Z,1006.50
2018-12-07T07:28:48.575Z,1006.52
2018-12-07T07:29:48.543Z,1006.50
2018-12-07T07:30:48.515Z,1006.48
2018-12-07T07:31:48.486Z,1006.50
2018-12-07T07:32:48.457Z,1006.48
2018-12-07T07:33:48.427Z,1006.51
2018-12-07T07:34:48.398Z,1006.51
2018-12-07T07:35:48.368Z,1006.47
2018-12-07T07:36:48.341Z,1006.53
2018-12-07T07:37:48.310Z,1006.46
2018-12-07T07:38:48.282Z,1006.43
2018-12-07T07:39:48.305Z,1006.42
2018-12-07T07:40:48.223Z,1006.43
2018-12-07T07:41:48.192Z,1006.41
2018-12-07T07:42:48.163Z,1006.42
2018-12-07T07:43:48.137Z,1006.35
2018-12-07T07:44:48.107Z,1006.34
2018-12-07T07:45:48.075Z,1006.33
2018-12-07T07:46:48.052Z,1006.35
2018-12-07T07:47:48.018Z,1006.28
2018-12-07T07:48:47.988Z,1006.28
2018-12-07T07:49:47.958Z,1006.25
2018-12-07T07:50:47.935Z,1006.25
2018-12-07T07:51:47.902Z,1006.19
2018-12-07T07:52:47.872Z,1006.19
2018-12-07T07:53:47.843Z,1006.19
2018-12-07T07:54:47.813Z,1006.15
2018-12-07T07:55:47.784Z,1006.18
2018-12-07T07:56:47.755Z,1006.19
2018-12-07T07:57:47.726Z,1006.09
2018-12-07T07:58:47.699Z,1006.11
2018-12-07T07:59:47.667Z,1006.11
2018-12-07T08:00:47.639Z,1006.03
2018-12-07T08:01:47.608Z,1006.11
2018-12-07T08:02:47.579Z,1006.07
2018-12-07T08:03:47.550Z,1006.01
2018-12-07T08:04:47.525Z,1006.01
2018-12-07T08:05:47.505Z,1005.96
2018-12-07T08:06:47.466Z,1005.94
2018-12-07T08:07:47.433Z,1005.94
2018-12-07T08:08:47.407Z,1005.94
2018-12-07T08:09:47.374Z,1005.91
2018-12-07T08:10:47.345Z,1005.95
2018-12-07T08:11:47.315Z,1005.91
2018-12-07T08:12:47.287Z,1005.90
2018-12-07T08:13:47.259Z,1005.88
2018-12-07T08:14:47.228Z,1005.91
2018-12-07T08:15:47.199Z,1005.91
2018-12-07T08:16:47.171Z,1005.89
2018-12-07T08:17:47.142Z,1005.83
2018-12-07T08:18:47.115Z,1005.92
2018-12-07T08:19:47.084Z,1005.94
2018-12-07T08:20:47.055Z,1005.90
2018-12-07T08:21:47.025Z,1005.88
2018-12-07T08:22:46.995Z,1005.93
2018-12-07T08:23:46.968Z,1005.92
2018-12-07T08:24:46.942Z,1005.87
2018-12-07T08:25:46.907Z,1005.81
2018-12-07T08:26:46.879Z,1005.85
2018-12-07T08:27:46.851Z,1005.83
2018-12-07T08:28:46.821Z,1005.80
2018-12-07T08:29:46.793Z,1005.81
2018-12-07T08:30:46.763Z,1005.77
2018-12-07T08:31:46.733Z,1005.74
2018-12-07T08:32:46.704Z,1005.70
2018-12-07T08:33:46.674Z,1005.75
2018-12-07T08:34:46.646Z,1005.72
2018-12-07T08:35:46.617Z,1005.75
2018-12-07T08:36:46.588Z,1005.79
2018-12-07T08:37:46.559Z,1005.71
2018-12-07T08:38:46.528Z,1005.72
2018-12-07T08:39:46.498Z,1005.72
2018-12-07T08:40:46.470Z,1005.75
2018-12-07T08:41:46.443Z,1005.76
2018-12-07T08:42:46.412Z,1005.68
2018-12-07T08:43:46.382Z,1005.76
2018-12-07T08:44:46.354Z,1005.75
2018-12-07T08:45:46.323Z,1005.68
2018-12-07T08:46:46.298Z,1005.67
2018-12-07T08:47:46.266Z,1005.71
2018-12-07T08:48:46.239Z,1005.62
2018-12-07T08:49:46.207Z,1005.62
2018-12-07T08:50:46.179Z,1005.62
2018-12-07T08:51:46.149Z,1005.59
2018-12-07T08:52:46.203Z,1005.59
2018-12-07T08:53:46.091Z,1005.53
2018-12-07T08:54:46.061Z,1005.52
2018-12-07T08:55:46.032Z,1005.54
2018-12-07T08:56:46.003Z,1005.52
2018-12-07T08:57:45.979Z,1005.52
2018-12-07T08:58:45.945Z,1005.45
2018-12-07T08:59:45.915Z,1005.50
2018-12-07T09:00:45.890Z,1005.48
2018-12-07T09:01:45.858Z,1005.49
2018-12-07T09:02:45.828Z,1005.47
2018-12-07T09:03:45.800Z,1005.47
2018-12-07T09:04:45.773Z,1005.50
2018-12-07T09:05:45.741Z,1005.44
2018-12-07T09:06:45.711Z,1005.42
2018-12-07T09:07:45.682Z,1005.36
2018-12-07T09:08:45.654Z,1005.40
2018-12-07T09:09:45.623Z,1005.41
2018-12-07T09:10:45.595Z,1005.40
2018-12-07T09:11:45.566Z,1005.39
2018-12-07T09:12:45.538Z,1005.38
2018-12-07T09:13:46.591Z,1005.35
2018-12-07T09:14:45.478Z,1005.30
2018-12-07T09:15:45.449Z,1005.32
2018-12-07T09:16:45.419Z,1005.30
2018-12-07T09:17:45.389Z,1005.29
2018-12-07T09:18:45.360Z,1005.23
2018-12-07T09:19:45.332Z,1005.24
2018-12-07T09:20:45.302Z,1005.27
2018-12-07T09:21:45.273Z,1005.25
2018-12-07T09:22:45.245Z,1005.22
2018-12-07T09:23:49.504Z,1005.20
2018-12-07T09:24:45.187Z,1005.22
2018-12-07T09:25:45.157Z,1005.21
2018-12-07T09:26:45.128Z,1005.24
2018-12-07T09:27:45.100Z,1005.20
2018-12-07T09:28:45.070Z,1005.15
2018-12-07T09:29:45.041Z,1005.10
2018-12-07T09:30:45.014Z,1005.05
2018-12-07T09:31:44.983Z,1005.04
2018-12-07T09:32:44.954Z,1005.08
2018-12-07T09:33:44.923Z,1005.09
2018-12-07T09:34:44.895Z,1004.98
2018-12-07T09:35:44.866Z,1004.98
2018-12-07T09:36:44.836Z,1004.99
2018-12-07T09:37:44.806Z,1004.94
2018-12-07T09:38:44.777Z,1004.97
2018-12-07T09:39:44.752Z,1004.91
2018-12-07T09:40:44.719Z,1004.94
2018-12-07T09:41:44.690Z,1004.90
2018-12-07T09:42:44.666Z,1004.94
2018-12-07T09:43:44.631Z,1004.88
2018-12-07T09:44:44.603Z,1004.86
2018-12-07T09:45:44.578Z,1004.84
2018-12-07T09:46:44.544Z,1004.87
2018-12-07T09:47:44.515Z,1004.81
2018-12-07T09:48:44.486Z,1004.79
2018-12-07T09:49:44.457Z,1004.79
2018-12-07T09:50:44.429Z,1004.78
2018-12-07T09:51:44.401Z,1004.76
2018-12-07T09:52:44.370Z,1004.75
2018-12-07T09:53:44.340Z,1004.69
2018-12-07T09:54:44.311Z,1004.68
2018-12-07T09:55:44.282Z,1004.66
2018-12-07T09:56:44.252Z,1004.62
2018-12-07T09:57:44.223Z,1004.63
2018-12-07T09:58:44.193Z,1004.63
2018-12-07T09:59:44.165Z,1004.61
2018-12-07T10:00:44.137Z,1004.64
2018-12-07T10:01:44.106Z,1004.62
2018-12-07T10:02:44.080Z,1004.61
2018-12-07T10:03:44.050Z,1004.58
2018-12-07T10:04:44.021Z,1004.60
2018-12-07T10:05:43.991Z,1004.57
2018-12-07T10:06:43.961Z,1004.56
2018-12-07T10:07:43.932Z,1004.55
2018-12-07T10:08:43.904Z,1004.51
2018-12-07T10:09:43.874Z,1004.48
2018-12-07T10:10:43.845Z,1004.45
2018-12-07T10:11:43.817Z,1004.47
2018-12-07T10:12:43.787Z,1004.42
2018-12-07T10:13:43.760Z,1004.35
2018-12-07T10:14:43.728Z,1004.39
2018-12-07T10:15:43.699Z,1004.40
2018-12-07T10:16:43.674Z,1004.39
2018-12-07T10:17:43.642Z,1004.37
2018-12-07T10:18:43.613Z,1004.38
2018-12-07T10:19:43.584Z,1004.28
2018-12-07T10:20:43.555Z,1004.31
2018-12-07T10:21:43.524Z,1004.26
2018-12-07T10:22:43.497Z,1004.30
2018-12-07T10:23:43.467Z,1004.27
2018-12-07T10:24:43.439Z,1004.28
2018-12-07T10:25:43.409Z,1004.23
2018-12-07T10:26:43.380Z,1004.25
2018-12-07T10:27:43.350Z,1004.23
2018-12-07T10:28:43.323Z,1004.15
2018-12-07T10:29:43.293Z,1004.17
2018-12-07T10:30:43.262Z,1004.17
2018-12-07T10:31:43.234Z,1004.09
2018-12-07T10:32:43.204Z,1004.06
2018-12-07T10:33:43.179Z,1004.07
2018-12-07T10:34:43.148Z,1004.02
2018-12-07T10:35:43.117Z,1003.98
2018-12-07T10:36:43.092Z,1004.00
2018-12-07T10:37:43.058Z,1003.99
2018-12-07T10:38:43.029Z,1003.97
2018-12-07T10:39:43.004Z,1003.97
2018-12-07T10:40:42.972Z,1003.92
2018-12-07T10:41:42.943Z,1003.92
2018-12-07T10:42:42.913Z,1003.89
2018-12-07T10:43:42.884Z,1003.92
2018-12-07T10:44:42.856Z,1003.88
2018-12-07T10:45:42.826Z,1003.89
2018-12-07T10:46:42.797Z,1003.82
2018-12-07T10:47:50.086Z,1003.79
2018-12-07T10:48:42.740Z,1003.79
2018-12-07T10:49:42.709Z,1003.75
2018-12-07T10:50:42.682Z,1003.74
2018-12-07T10:51:42.653Z,1003.68
2018-12-07T10:52:42.622Z,1003.76
2018-12-07T10:53:42.593Z,1003.71
2018-12-07T10:54:42.564Z,1003.68
2018-12-07T10:55:42.537Z,1003.67
2018-12-07T10:56:42.510Z,1003.67
2018-12-07T10:57:42.476Z,1003.63
2018-12-07T10:58:42.449Z,1003.63
2018-12-07T10:59:42.420Z,1003.62
2018-12-07T11:00:42.391Z,1003.56
2018-12-07T11:01:42.360Z,1003.54
2018-12-07T11:02:42.332Z,1003.59
2018-12-07T11:03:42.303Z,1003.54
2018-12-07T11:04:42.275Z,1003.49
2018-12-07T11:05:42.244Z,1003.50
2018-12-07T11:06:42.215Z,1003.45
2018-12-07T11:07:42.187Z,1003.53
2018-12-07T11:08:42.158Z,1003.42
2018-12-07T11:09:42.129Z,1003.41
2018-12-07T11:10:42.099Z,1003.39
2018-12-07T11:11:42.071Z,1003.35
2018-12-07T11:12:42.041Z,1003.36
2018-12-07T11:13:42.013Z,1003.34
2018-12-07T11:14:41.985Z,1003.31
2018-12-07T11:15:41.956Z,1003.25
2018-12-07T11:16:41.928Z,1003.29
2018-12-07T11:17:41.896Z,1003.26
2018-12-07T11:18:41.866Z,1003.26
2018-12-07T11:19:41.838Z,1003.23
2018-12-07T11:20:41.810Z,1003.23
2018-12-07T11:21:41.782Z,1003.23
2018-12-07T11:22:41.751Z,1003.15
2018-12-07T11:23:41.723Z,1003.17
2018-12-07T11:24:41.693Z,1003.14
2018-12-07T11:25:41.664Z,1003.08
2018-12-07T11:26:41.635Z,1003.11
2018-12-07T11:27:41.605Z,1003.08
2018-12-07T11:28:41.577Z,1003.04
2018-12-07T11:29:41.548Z,1003.03
2018-12-07T11:30:41.519Z,1003.00
2018-12-07T11:31:41.489Z,1003.02
2018-12-07T11:32:41.461Z,1003.02
2018-12-07T11:33:41.432Z,1002.91
2018-12-07T11:34:41.402Z,1002.98
2018-12-07T11:35:41.375Z,1002.92
2018-12-07T11:36:41.345Z,1002.87
2018-12-07T11:37:41.317Z,1002.90
2018-12-07T11:38:41.290Z,1002.85
2018-12-07T11:39:41.258Z,1002.88
2018-12-07T11:40:41.230Z,1002.88
2018-12-07T11:41:41.200Z,1002.85
2018-12-07T11:42:41.178Z,1002.90
2018-12-07T11:43:41.142Z,1002.84
2018-12-07T11:44:41.113Z,1002.81
2018-12-07T11:45:41.096Z,1002.80
2018-12-07T11:46:41.056Z,1002.71
2018-12-07T11:47:41.081Z,1002.74
2018-12-07T11:48:40.997Z,1002.70
2018-12-07T11:49:40.968Z,1002.70
2018-12-07T11:50:40.938Z,1002.65
2018-12-07T11:51:40.911Z,1002.70
2018-12-07T11:52:40.881Z,1002.65
2018-12-07T11:53:40.852Z,1002.61
2018-12-07T11:54:40.823Z,1002.59
2018-12-07T11:55:40.797Z,1002.57
2018-12-07T11:56:40.767Z,1002.56
2018-12-07T11:57:40.735Z,1002.50
2018-12-07T11:58:40.708Z,1002.51
2018-12-07T11:59:40.678Z,1002.47
2018-12-07T12:00:40.650Z,1002.48
2018-12-07T12:01:44.673Z,1002.46
2018-12-07T12:02:40.591Z,1002.42
2018-12-07T12:03:40.565Z,1002.40
2018-12-07T12:04:40.534Z,1002.35